Seaside, Oregon
Current Conditions -  °F | °C
As of 9:55 AM on Friday 31 Oct 2014 (Local Time) from KAST Reporting Station
Overcast Overcast  
Wind Chill: 51°   Ceiling: 5500
Heat Index: 51°   Visibility: 10mi
Dew Point: 49°   Wind: 5mph
Humidity: 92%   Direction: 160°SSE
Pressure: 29.81"   Gusts: NA
Location:  45.99°N, 123.91°W
Report Text: KAST 311655Z AUTO 16004KT 10SM FEW028 OVC055 11/09 A2981 RMK AO2 RAE27 SLP094 P0001 T01060094
Loading
Personal Weather Stations






























Interactive Weather Map New forecast layout! Learn more

10-Day Weather Forecast

Advertisements
Track Severe Weather on mobile